Time;durP1;ratioP1;P1;durP2;ratioP2;P2;SDS_P1;SDS_P2;PMS_P1;PMS_P2;Temp;Humidity;BMP_temperature;BMP_pressure;BME280_temperature;BME280_humidity;BME280_pressure;Samples;Min_cycle;Max_cycle;Signal;HPM_P1;HPM_P2
2023/05/19 00:01:53;;;;;;;10.70;7.43;;;;;;;7.34;94.47;102504.22;4997812;28;20364;-94
2023/05/19 00:04:20;;;;;;;17.10;7.90;;;;;;;7.34;94.52;102511.41;4997372;28;20082;-94
2023/05/19 00:06:50;;;;;;;14.48;7.60;;;;;;;7.13;94.89;102487.25;4997934;28;20392;-94
2023/05/19 00:09:16;;;;;;;10.47;7.17;;;;;;;7.33;95.98;102513.25;4979979;28;20030;-94
2023/05/19 00:11:42;;;;;;;10.13;7.27;;;;;;;7.12;95.93;102482.94;4997429;28;20277;-93
2023/05/19 00:14:08;;;;;;;18.88;8.50;;;;;;;7.20;96.44;102505.16;4997656;28;20500;-93
2023/05/19 00:16:35;;;;;;;12.45;6.97;;;;;;;7.17;96.04;102497.53;4978901;28;20022;-93
2023/05/19 00:19:01;;;;;;;12.80;8.07;;;;;;;7.21;97.03;102506.81;4997729;28;20498;-94
2023/05/19 00:21:28;;;;;;;12.03;7.27;;;;;;;7.06;97.41;102489.06;4997406;28;20026;-94
2023/05/19 00:23:54;;;;;;;17.57;6.90;;;;;;;7.15;97.13;102497.75;4997357;28;20270;-94
2023/05/19 00:26:23;;;;;;;11.27;7.40;;;;;;;7.11;96.65;102505.31;4978711;28;20073;-93
2023/05/19 00:28:48;;;;;;;17.98;7.80;;;;;;;6.96;97.00;102483.22;4997015;28;20026;-94
2023/05/19 00:31:14;;;;;;;12.50;6.88;;;;;;;7.10;96.92;102495.66;4996253;28;20090;-94
2023/05/19 00:33:48;;;;;;;13.67;6.93;;;;;;;7.03;96.20;102489.44;4996692;28;20041;-94
2023/05/19 00:36:14;;;;;;;12.82;7.60;;;;;;;6.86;98.04;102462.22;4996294;28;20486;-93
2023/05/19 00:38:39;;;;;;;11.38;7.03;;;;;;;6.82;97.90;102455.66;4978483;28;20022;-93
2023/05/19 00:41:05;;;;;;;14.53;7.20;;;;;;;6.93;98.68;102489.78;4997374;28;20041;-93
2023/05/19 00:43:34;;;;;;;15.18;7.53;;;;;;;6.90;98.70;102482.16;4996391;28;20033;-94
2023/05/19 00:46:00;;;;;;;12.88;6.82;;;;;;;6.88;98.98;102484.19;4979179;28;20034;-92
2023/05/19 00:48:25;;;;;;;14.43;7.13;;;;;;;6.82;99.21;102471.66;4996317;28;20018;-93
2023/05/19 00:50:53;;;;;;;13.70;6.90;;;;;;;6.92;99.04;102479.31;4996215;28;20390;-93
2023/05/19 00:53:19;;;;;;;15.23;6.72;;;;;;;6.76;99.99;102462.56;4995917;28;20030;-93
2023/05/19 00:55:46;;;;;;;16.10;7.55;;;;;;;6.85;100.00;102473.09;4995293;28;20034;-93
2023/05/19 00:58:13;;;;;;;14.65;7.00;;;;;;;6.89;100.00;102487.69;4996910;28;20084;-93
2023/05/19 01:00:38;;;;;;;11.63;7.18;;;;;;;6.75;100.00;102468.94;4996418;28;20022;-93
2023/05/19 01:03:11;;;;;;;11.33;6.90;;;;;;;6.74;100.00;102475.28;4996399;28;20584;-94
2023/05/19 01:05:40;;;;;;;14.95;7.55;;;;;;;6.79;100.00;102486.16;4995882;28;20516;-94
2023/05/19 01:08:06;;;;;;;18.38;7.22;;;;;;;6.60;100.00;102462.81;4979116;28;20026;-93
2023/05/19 01:11:10;;;;;;;14.60;7.05;;;;;;;6.75;100.00;102492.06;4996927;28;20053;-94
2023/05/19 01:13:35;;;;;;;9.37;6.27;;;;;;;6.47;100.00;102453.69;4994603;28;20487;-93
2023/05/19 01:16:38;;;;;;;13.53;7.20;;;;;;;6.65;100.00;102487.06;4996726;28;20297;-93
2023/05/19 01:19:35;;;;;;;16.95;6.72;;;;;;;6.62;100.00;102487.44;4978204;28;20034;-93
2023/05/19 01:22:41;;;;;;;14.25;6.38;;;;;;;6.62;100.00;102492.75;4979244;28;20397;-93
2023/05/19 01:25:41;;;;;;;13.50;6.75;;;;;;;6.53;100.00;102486.75;4995938;28;20405;-93
2023/05/19 01:28:21;;;;;;;12.38;6.18;;;;;;;6.46;100.00;102481.34;4996969;28;20026;-93
2023/05/19 01:31:39;;;;;;;10.43;6.37;;;;;;;6.45;100.00;102485.03;5010685;23;20084;-93
2023/05/19 01:34:41;;;;;;;12.90;5.77;;;;;;;6.23;100.00;102460.22;4996456;28;20297;-94
2023/05/19 01:38:13;;;;;;;17.08;6.95;;;;;;;6.20;100.00;102456.13;4995361;28;20034;-94
2023/05/19 01:44:22;;;;;;;;;;;;;;;;;;;;;
2023/05/19 01:53:56;;;;;;;11.27;6.13;;;;;;;6.12;100.00;102450.88;4936157;29;20415;-92
2023/05/19 01:57:05;;;;;;;12.63;6.03;;;;;;;6.21;100.00;102475.56;4995779;23;20121;-94
2023/05/19 02:00:04;;;;;;;10.77;6.30;;;;;;;6.18;100.00;102468.78;5016646;23;20514;-94
2023/05/19 02:03:14;;;;;;;9.53;5.73;;;;;;;6.03;100.00;102442.19;4991762;28;20051;-93
2023/05/19 02:06:30;;;;;;;11.23;6.30;;;;;;;6.15;100.00;102466.50;4994410;28;20293;-93
2023/05/19 02:16:27;;;;;;;;;;;;;;;;;;;;;
2023/05/19 02:22:58;;;;;;;13.27;6.03;;;;;;;5.89;100.00;102454.47;4905600;29;20044;-94
2023/05/19 02:26:07;;;;;;;11.00;6.07;;;;;;;5.65;100.00;102428.22;4914867;29;20075;-93
2023/05/19 02:28:45;;;;;;;14.48;6.47;;;;;;;5.74;100.00;102440.38;4876905;23;20075;-93
2023/05/19 02:31:13;;;;;;;12.50;6.63;;;;;;;5.70;100.00;102429.28;4956891;29;20082;-93
2023/05/19 02:34:07;;;;;;;14.07;6.40;;;;;;;5.60;100.00;102421.59;4944633;29;20042;-93
2023/05/19 02:37:20;;;;;;;13.07;6.50;;;;;;;5.68;100.00;102438.44;4927724;29;20283;-93
2023/05/19 02:39:45;;;;;;;9.57;6.57;;;;;;;5.54;100.00;102416.19;4947391;28;20043;-94
2023/05/19 02:42:27;;;;;;;17.40;6.55;;;;;;;5.51;100.00;102424.53;4960714;29;20090;-94
2023/05/19 02:45:02;;;;;;;13.15;6.53;;;;;;;5.61;100.00;102436.56;4961179;29;20031;-92
2023/05/19 02:47:28;;;;;;;12.43;6.30;;;;;;;5.54;100.00;102432.97;4965820;29;20023;-92
2023/05/19 02:52:45;;;;;;;14.65;6.78;;;;;;;5.43;100.00;102422.81;5018825;28;20030;-93
2023/05/19 02:55:26;;;;;;;11.48;6.25;;;;;;;5.51;100.00;102427.19;5003851;28;20017;-93
2023/05/19 02:58:13;;;;;;;16.48;6.50;;;;;;;5.49;100.00;102429.22;5003847;28;20046;-92
2023/05/19 03:00:47;;;;;;;15.57;6.40;;;;;;;5.43;100.00;102426.28;4976630;28;20031;-93
2023/05/19 03:03:25;;;;;;;10.73;6.43;;;;;;;5.35;100.00;102412.25;5001631;28;20262;-93
2023/05/19 03:05:54;;;;;;;12.10;6.28;;;;;;;5.39;100.00;102418.84;5001287;28;20015;-94
2023/05/19 03:08:30;;;;;;;;;;;;;;;;;;;;;
2023/05/19 03:10:58;;;;;;;16.77;7.00;;;;;;;5.43;100.00;102441.41;4987488;28;20133;-95
2023/05/19 03:13:34;;;;;;;14.68;6.43;;;;;;;5.25;100.00;102412.53;4988468;28;20019;-94
2023/05/19 03:16:03;;;;;;;12.52;6.68;;;;;;;5.43;100.00;102444.06;4988195;28;20095;-94
2023/05/19 03:18:29;;;;;;;9.80;6.03;;;;;;;5.35;100.00;102431.69;4988150;28;20042;-94
2023/05/19 03:24:08;;;;;;;11.43;5.93;;;;;;;5.39;100.00;102443.59;5011714;23;20081;-93
2023/05/19 03:26:43;;;;;;;17.57;6.40;;;;;;;5.28;100.00;102428.94;5010351;28;20090;-93
2023/05/19 03:32:40;;;;;;;14.05;6.45;;;;;;;5.13;100.00;102423.63;5001271;28;20042;-94
2023/05/19 03:35:44;;;;;;;16.17;6.13;;;;;;;5.09;100.00;102418.84;4955129;28;20050;-94
2023/05/19 03:38:38;;;;;;;14.20;6.45;;;;;;;5.28;100.00;102454.69;4981932;28;20182;-94
2023/05/19 03:41:03;;;;;;;9.38;6.30;;;;;;;5.29;100.00;102454.53;4982230;28;20036;-94
2023/05/19 03:43:40;;;;;;;11.30;5.73;;;;;;;5.10;100.00;102425.81;4999341;28;20050;-94
2023/05/19 03:49:10;;;;;;;14.73;6.47;;;;;;;5.12;100.00;102434.41;5016249;23;20549;-93
2023/05/19 03:52:05;;;;;;;12.73;6.80;;;;;;;5.25;100.00;102461.22;4997661;28;20146;-93
2023/05/19 03:54:30;;;;;;;12.98;6.45;;;;;;;5.21;100.00;102464.38;4998971;28;20030;-93
2023/05/19 03:57:05;;;;;;;10.60;6.47;;;;;;;5.09;100.00;102440.13;4999056;28;20022;-93
2023/05/19 03:59:49;;;;;;;11.50;6.28;;;;;;;5.25;100.00;102474.50;4981825;28;20030;-94
2023/05/19 04:02:24;;;;;;;15.07;7.03;;;;;;;5.20;100.00;102458.25;4982323;28;20034;-95
2023/05/19 04:04:49;;;;;;;16.10;6.40;;;;;;;5.15;100.00;102442.03;4999709;28;20031;-94
2023/05/19 04:07:15;;;;;;;13.07;6.47;;;;;;;5.20;100.00;102442.31;4981188;28;20113;-94
2023/05/19 04:09:41;;;;;;;13.55;7.05;;;;;;;5.25;100.00;102453.22;4980704;28;20031;-94
2023/05/19 04:12:46;;;;;;;11.43;6.80;;;;;;;5.33;100.00;102447.00;4982989;28;20026;-94
2023/05/19 04:16:09;;;;;;;16.85;6.78;;;;;;;5.48;100.00;102441.66;4955973;28;20128;-93
2023/05/19 04:22:45;;;;;;;13.52;7.22;;;;;;;6.07;100.00;102466.59;5019094;28;20037;-94
2023/05/19 04:25:40;;;;;;;13.43;6.35;;;;;;;6.05;100.00;102468.59;5003472;28;20058;-94
2023/05/19 04:35:09;;;;;;;18.37;6.53;;;;;;;6.08;100.00;102464.75;4990884;28;20296;-93
2023/05/19 04:38:17;;;;;;;16.75;7.30;;;;;;;5.95;100.00;102441.44;4990095;28;20049;-94
2023/05/19 04:40:56;;;;;;;14.27;7.50;;;;;;;5.99;100.00;102435.56;4976607;28;20045;-93
2023/05/19 04:43:21;;;;;;;17.13;7.47;;;;;;;6.12;100.00;102456.22;4982015;28;20335;-92
2023/05/19 04:46:56;;;;;;;18.27;7.57;;;;;;;6.28;100.00;102475.63;4998567;28;20019;-93
2023/05/19 04:49:42;;;;;;;13.90;7.18;;;;;;;6.44;100.00;102470.06;4979098;28;20094;-93
2023/05/19 04:53:15;;;;;;;14.07;7.72;;;;;;;6.35;100.00;102444.59;4991452;28;20019;-95
2023/05/19 04:55:55;;;;;;;12.98;7.03;;;;;;;6.59;100.00;102453.19;4953417;28;20185;-93
2023/05/19 05:01:24;;;;;;;16.17;7.60;;;;;;;7.24;100.00;102474.41;5010199;23;20054;-94
2023/05/19 05:04:01;;;;;;;14.18;7.35;;;;;;;7.70;100.00;102457.84;4974219;28;20050;-94
2023/05/19 05:06:27;;;;;;;13.60;7.50;;;;;;;8.47;100.00;102459.50;4979560;28;20053;-94
2023/05/19 05:08:52;;;;;;;15.95;7.50;;;;;;;9.04;100.00;102443.09;4982824;23;20047;-94
2023/05/19 05:11:33;;;;;;;15.53;7.40;;;;;;;9.82;100.00;102442.28;4994431;28;20034;-93
2023/05/19 05:14:26;;;;;;;13.50;6.50;;;;;;;10.63;96.77;102473.16;4979993;28;20088;-94
2023/05/19 05:17:48;;;;;;;11.55;6.30;;;;;;;11.32;97.55;102479.34;4998254;28;20027;-94
2023/05/19 05:20:22;;;;;;;13.88;5.95;;;;;;;11.92;90.58;102468.97;5016060;23;20130;-95
2023/05/19 05:22:58;;;;;;;18.73;6.22;;;;;;;12.30;86.88;102456.28;5017881;28;20188;-93
2023/05/19 05:25:27;;;;;;;12.27;5.97;;;;;;;12.80;83.44;102480.09;5017732;28;20049;-95
2023/05/19 05:27:57;;;;;;;8.45;5.75;;;;;;;13.03;80.28;102476.63;5000830;28;20050;-95
2023/05/19 05:30:45;;;;;;;8.95;5.57;;;;;;;13.06;79.66;102472.63;5000622;28;20062;-93
2023/05/19 05:33:33;;;;;;;13.20;5.50;;;;;;;13.13;80.91;102473.34;5016292;28;20076;-93
2023/05/19 05:42:41;;;;;;;11.02;5.63;;;;;;;12.75;80.73;102484.53;6002313;23;20664;-93
2023/05/19 05:45:21;;;;;;;10.13;6.30;;;;;;;12.27;82.01;102477.19;4994863;28;20042;-94
2023/05/19 05:47:50;;;;;;;11.82;6.03;;;;;;;12.00;82.64;102470.56;4978729;28;20097;-93
2023/05/19 05:53:20;;;;;;;9.48;5.95;;;;;;;11.59;85.22;102462.97;5166993;23;20061;-93
2023/05/19 05:55:49;;;;;;;10.88;5.82;;;;;;;11.34;85.56;102465.72;4946413;29;20462;-93
2023/05/19 06:00:52;;;;;;;10.97;6.03;;;;;;;10.97;89.31;102477.19;5506284;23;20051;-93
2023/05/19 06:03:20;;;;;;;13.40;6.17;;;;;;;11.01;90.51;102478.41;4977687;28;20784;-92
2023/05/19 06:05:52;;;;;;;13.27;6.20;;;;;;;10.95;90.95;102457.84;4952208;28;20039;-93
2023/05/19 06:08:42;;;;;;;13.20;5.60;;;;;;;11.08;90.26;102491.75;4953707;29;20051;-91
2023/05/19 06:11:20;;;;;;;12.88;6.22;;;;;;;10.87;90.49;102471.53;4994198;28;20359;-93
2023/05/19 06:13:54;;;;;;;11.45;6.80;;;;;;;10.94;90.65;102496.44;4994282;28;20027;-92
2023/05/19 06:22:16;;;;;;;11.93;6.63;;;;;;;10.58;91.97;102473.81;5922429;23;21680;-92
2023/05/19 06:24:42;;;;;;;11.00;6.53;;;;;;;10.72;92.41;102496.81;4994580;28;20034;-92
2023/05/19 06:27:17;;;;;;;10.27;6.40;;;;;;;10.74;92.21;102493.88;4996457;28;20031;-93
2023/05/19 06:29:42;;;;;;;13.60;6.22;;;;;;;10.70;92.19;102488.16;5088618;23;20149;-92
2023/05/19 06:32:14;;;;;;;12.40;6.10;;;;;;;10.70;92.79;102488.16;4996683;28;20077;-92
2023/05/19 06:35:32;;;;;;;10.30;6.15;;;;;;;10.68;93.63;102490.22;4996900;28;20319;-92
2023/05/19 06:51:20;;;;;;;15.43;6.35;;;;;;;11.27;91.58;102495.31;4991911;28;20058;-92
2023/05/19 07:24:18;;;;;;;12.10;5.80;;;;;;;12.79;83.19;102496.47;4913463;29;20032;-93
2023/05/19 07:33:51;;;;;;;12.95;6.20;;;;;;;13.02;79.01;102472.31;4826229;29;20042;-93
2023/05/19 07:46:13;;;;;;;10.82;4.82;;;;;;;13.87;77.71;102498.88;4977769;28;20081;-94
2023/05/19 09:01:06;;;;;;;;;;;;;;;;;;;;;
2023/05/19 09:04:12;;;;;;;;;;;;;;;;;;;;;
2023/05/19 09:09:52;;;;;;;7.90;2.80;;;;;;;18.52;46.63;102421.38;4993972;23;20047;-94
2023/05/19 09:52:09;;;;;;;7.00;1.93;;;;;;;19.22;41.78;102409.03;5054456;23;20084;-94
2023/05/19 09:54:57;;;;;;;3.87;1.90;;;;;;;19.50;39.32;102406.72;4938194;29;20319;-94
2023/05/19 10:25:27;;;;;;;10.80;2.57;;;;;;;19.48;41.50;102396.13;4994970;28;20417;-94
2023/05/19 11:47:23;;;;;;;5.60;2.30;;;;;;;21.97;35.18;102328.06;4996069;28;20308;-94
2023/05/19 11:56:14;;;;;;;4.70;2.38;;;;;;;22.28;33.53;102341.97;4995536;28;20469;-92
2023/05/19 12:02:29;;;;;;;6.63;2.50;;;;;;;22.14;33.00;102320.09;5142868;23;20141;-93
2023/05/19 12:08:15;;;;;;;8.07;2.47;;;;;;;22.10;34.59;102330.00;5084686;23;20054;-92
2023/05/19 12:10:52;;;;;;;5.85;2.25;;;;;;;22.23;33.35;102307.38;4983843;28;20508;-93
2023/05/19 12:13:34;;;;;;;7.33;2.63;;;;;;;22.41;33.56;102304.03;4977670;28;20018;-94
2023/05/19 12:16:53;;;;;;;9.10;2.60;;;;;;;22.56;33.90;102322.88;4972017;28;20325;-93
2023/05/19 12:23:15;;;;;;;6.63;2.45;;;;;;;22.53;33.18;102323.53;4951050;29;20045;-93
2023/05/19 12:25:59;;;;;;;10.13;2.40;;;;;;;22.38;33.57;102297.28;4967871;28;20037;-94
2023/05/19 12:42:56;;;;;;;;;;;;;;;;;;;;;
2023/05/19 12:52:50;;;;;;;;;;;;;;;;;;;;;
2023/05/19 12:58:33;;;;;;;8.05;2.72;;;;;;;23.13;32.73;102295.19;5015950;23;20762;-93
2023/05/19 13:04:35;;;;;;;6.45;2.47;;;;;;;23.06;32.16;102258.47;4916752;29;20108;-93
2023/05/19 13:42:26;;;;;;;;;;;;;;;;;;;;;
2023/05/19 13:47:52;;;;;;;8.65;2.45;;;;;;;23.27;31.16;102262.38;5028315;23;20071;-91
2023/05/19 14:13:37;;;;;;;;;;;;;;;;;;;;;
2023/05/19 14:30:44;;;;;;;8.52;2.60;;;;;;;23.29;31.34;102218.31;5011964;28;20050;-90
2023/05/19 14:33:20;;;;;;;9.43;2.90;;;;;;;22.59;31.52;102207.56;4999078;28;20025;-91
2023/05/19 14:45:43;;;;;;;7.97;2.90;;;;;;;23.91;31.15;102235.88;4966136;28;20320;-92
2023/05/19 14:48:27;;;;;;;4.80;2.65;;;;;;;23.04;31.51;102220.50;4977859;28;20023;-93
2023/05/19 14:51:59;;;;;;;8.68;2.90;;;;;;;23.48;32.14;102230.97;4976380;28;20031;-93
2023/05/19 14:54:48;;;;;;;6.28;3.13;;;;;;;23.21;30.79;102233.53;4975764;23;20145;-93
2023/05/19 15:04:05;;;;;;;8.77;3.05;;;;;;;23.64;30.20;102199.34;4997730;28;20050;-92
2023/05/19 15:06:30;;;;;;;7.10;2.95;;;;;;;23.77;30.95;102221.47;4998507;28;20030;-92
2023/05/19 15:09:05;;;;;;;5.13;2.90;;;;;;;23.35;29.97;102221.72;5017627;28;20029;-91
2023/05/19 15:11:49;;;;;;;5.22;2.70;;;;;;;23.11;31.70;102215.41;5019262;28;20034;-91
2023/05/19 15:14:24;;;;;;;8.05;2.47;;;;;;;23.56;30.77;102219.25;5017693;28;20030;-92
2023/05/19 15:16:51;;;;;;;7.57;2.80;;;;;;;23.47;30.75;102199.25;5017331;28;20038;-92
2023/05/19 15:19:39;;;;;;;5.70;2.90;;;;;;;23.48;29.32;102195.41;5017359;28;20041;-90
2023/05/19 15:22:26;;;;;;;5.60;2.80;;;;;;;23.84;29.81;102216.34;5006798;23;20301;-91
2023/05/19 15:24:58;;;;;;;10.13;3.05;;;;;;;23.80;30.34;102196.22;5017329;28;20049;-90
2023/05/19 15:27:47;;;;;;;8.35;2.33;;;;;;;23.55;29.82;102185.63;5018306;28;20041;-90
2023/05/19 15:30:30;;;;;;;6.88;2.72;;;;;;;23.37;30.30;102198.38;5001498;28;20030;-92
2023/05/19 15:33:18;;;;;;;7.53;2.72;;;;;;;23.23;30.94;102198.47;4995890;28;20085;-92
2023/05/19 15:35:50;;;;;;;7.25;2.70;;;;;;;23.54;30.57;102183.22;4991853;28;20030;-92
2023/05/19 15:38:21;;;;;;;6.80;2.60;;;;;;;23.75;29.80;102173.31;4992241;28;20070;-92
2023/05/19 15:40:49;;;;;;;5.60;3.00;;;;;;;24.11;29.75;102189.91;4994952;28;20027;-91
2023/05/19 15:43:16;;;;;;;7.75;2.50;;;;;;;24.41;30.69;102201.09;4994785;28;20031;-91
2023/05/19 15:45:41;;;;;;;5.30;2.80;;;;;;;24.35;28.87;102205.94;4994082;28;20026;-90
2023/05/19 15:48:28;;;;;;;;;;;;;;;;;;;;;
2023/05/19 15:50:57;;;;;;;5.03;2.40;;;;;;;24.48;29.50;102176.75;5002564;28;20117;-91
2023/05/19 15:53:30;;;;;;;7.60;2.58;;;;;;;24.71;29.09;102180.22;4995429;28;20057;-90
2023/05/19 15:56:13;;;;;;;4.90;2.50;;;;;;;24.74;28.36;102174.06;4997163;28;20027;-91
2023/05/19 15:58:41;;;;;;;8.73;3.00;;;;;;;24.84;28.76;102167.44;4995368;28;20360;-90
2023/05/19 16:01:30;;;;;;;7.10;2.60;;;;;;;24.79;29.38;102171.16;4994844;28;20038;-91
2023/05/19 16:06:44;;;;;;;7.68;2.80;;;;;;;23.79;29.97;102189.13;5001470;23;20417;-92
2023/05/19 16:09:09;;;;;;;7.40;3.03;;;;;;;23.28;30.34;102170.19;4976984;28;20033;-91
2023/05/19 16:11:43;;;;;;;7.87;3.17;;;;;;;23.64;30.68;102163.78;4994145;28;20117;-91
2023/05/19 16:14:09;;;;;;;6.40;2.80;;;;;;;23.73;31.33;102167.38;5017993;23;20045;-91
2023/05/19 16:19:37;;;;;;;4.33;2.60;;;;;;;24.31;29.86;102152.91;4914133;29;20799;-91
2023/05/19 16:22:07;;;;;;;8.73;2.92;;;;;;;24.49;29.04;102156.47;4914631;29;20044;-91
2023/05/19 16:24:35;;;;;;;6.40;2.60;;;;;;;24.39;29.47;102165.00;4954570;28;20042;-91
2023/05/19 16:27:07;;;;;;;6.32;2.35;;;;;;;24.38;29.56;102182.56;4993860;28;20032;-91
2023/05/19 16:29:46;;;;;;;6.32;2.80;;;;;;;24.43;29.87;102182.41;4994070;28;20032;-92
2023/05/19 16:32:34;;;;;;;4.90;2.30;;;;;;;24.49;28.82;102176.44;4993929;28;20046;-92
2023/05/19 16:35:09;;;;;;;5.28;2.60;;;;;;;23.98;29.72;102161.53;4976383;28;20123;-92
2023/05/19 16:37:35;;;;;;;4.40;2.53;;;;;;;24.08;29.37;102152.22;4993839;28;20022;-92
2023/05/19 16:40:00;;;;;;;4.80;2.40;;;;;;;23.96;29.91;102145.38;4976427;28;20375;-92
2023/05/19 16:42:38;;;;;;;6.63;2.55;;;;;;;24.41;29.28;102155.31;4994179;28;20022;-92
2023/05/19 16:45:04;;;;;;;5.68;2.70;;;;;;;24.67;27.69;102145.50;4992641;28;20112;-92
2023/05/19 16:47:34;;;;;;;7.40;3.13;;;;;;;24.90;28.85;102151.66;4976471;28;20033;-92
2023/05/19 16:50:06;;;;;;;7.47;3.23;;;;;;;24.78;28.84;102163.28;4993778;28;20397;-91
2023/05/19 16:59:14;;;;;;;5.70;2.60;;;;;;;23.35;31.28;102148.69;5009094;28;20105;-91
2023/05/19 17:01:39;;;;;;;8.00;2.83;;;;;;;22.68;31.01;102142.09;4998273;28;20017;-92
2023/05/19 17:04:24;;;;;;;5.97;2.60;;;;;;;22.90;31.23;102143.22;5048951;23;20053;-91
2023/05/19 17:07:07;;;;;;;9.07;2.42;;;;;;;22.81;30.22;102137.69;5009162;28;20041;-91
2023/05/19 17:09:42;;;;;;;5.82;2.38;;;;;;;23.57;30.96;102155.22;5005039;28;20041;-91
2023/05/19 17:12:27;;;;;;;5.25;2.33;;;;;;;23.43;30.44;102147.13;5001775;28;20050;-91
2023/05/19 17:15:03;;;;;;;9.48;2.90;;;;;;;23.23;30.34;102146.53;4993024;28;20022;-92
2023/05/19 17:17:28;;;;;;;5.70;2.83;;;;;;;23.40;29.84;102156.75;4992412;28;20029;-91
2023/05/19 17:26:58;;;;;;;8.10;2.42;;;;;;;22.62;32.47;102160.53;5759392;23;20093;-91
2023/05/19 17:29:29;;;;;;;6.55;2.45;;;;;;;22.53;30.67;102146.00;4957004;29;20039;-91
2023/05/19 17:31:54;;;;;;;5.10;2.55;;;;;;;22.32;31.29;102143.69;4966125;29;20038;-92
2023/05/19 17:34:19;;;;;;;4.43;2.20;;;;;;;22.18;33.75;102130.06;4955527;29;20804;-92
2023/05/19 17:36:45;;;;;;;5.23;2.80;;;;;;;21.93;32.01;102145.81;4953703;29;20597;-92
2023/05/19 17:39:23;;;;;;;7.38;2.67;;;;;;;21.77;32.44;102139.06;4956089;28;20031;-92
2023/05/19 17:48:32;;;;;;;4.77;2.10;;;;;;;20.76;35.30;102125.75;4974985;28;20493;-91
2023/05/19 17:50:58;;;;;;;5.23;2.60;;;;;;;20.54;33.83;102124.41;4954531;28;20302;-91
2023/05/19 17:53:29;;;;;;;6.28;2.33;;;;;;;20.33;35.22;102131.25;4986661;28;20086;-90
2023/05/19 17:56:12;;;;;;;6.97;2.70;;;;;;;20.11;36.32;102130.69;4987879;28;20023;-90
2023/05/19 17:58:38;;;;;;;5.45;2.53;;;;;;;19.99;36.57;102138.47;4974219;28;20037;-90
2023/05/19 18:01:27;;;;;;;5.87;2.30;;;;;;;19.97;36.75;102157.00;4989929;28;20014;-90
2023/05/19 18:03:55;;;;;;;4.70;2.35;;;;;;;19.68;38.10;102142.31;4943797;28;20062;-90
2023/05/19 18:06:22;;;;;;;6.25;2.33;;;;;;;19.55;36.19;102121.25;4991196;28;20023;-91
2023/05/19 18:08:50;;;;;;;9.23;2.40;;;;;;;19.47;36.84;102147.16;4975010;28;20019;-92
2023/05/19 18:11:16;;;;;;;6.93;2.40;;;;;;;19.31;37.48;102143.75;4973433;28;20034;-90
2023/05/19 18:13:42;;;;;;;7.07;2.28;;;;;;;19.18;37.58;102134.34;4974214;28;20031;-91
2023/05/19 18:16:11;;;;;;;8.02;2.50;;;;;;;19.12;38.77;102132.78;4973659;28;20046;-92
2023/05/19 18:18:38;;;;;;;5.43;2.20;;;;;;;19.13;38.93;102139.84;4973752;28;20034;-92
2023/05/19 18:21:12;;;;;;;6.70;2.30;;;;;;;18.89;40.33;102126.94;4956566;28;20031;-92
2023/05/19 18:23:50;;;;;;;4.93;2.17;;;;;;;18.81;39.12;102145.75;4983566;23;20070;-92
2023/05/19 18:26:15;;;;;;;5.25;2.22;;;;;;;18.65;40.07;102142.31;4992628;28;20363;-92
2023/05/19 18:28:42;;;;;;;9.10;2.40;;;;;;;18.62;39.75;102160.78;4986817;28;20045;-91
2023/05/19 18:31:09;;;;;;;5.07;2.08;;;;;;;18.45;39.97;102149.47;4994917;28;20046;-92
2023/05/19 18:33:35;;;;;;;8.85;2.40;;;;;;;18.31;40.88;102160.94;4997666;28;20092;-92
2023/05/19 18:36:00;;;;;;;5.57;2.60;;;;;;;18.20;40.57;102166.66;4994086;28;20019;-91
2023/05/19 18:38:26;;;;;;;4.53;2.40;;;;;;;17.90;40.67;102149.38;4995560;28;20080;-91
2023/05/19 18:40:55;;;;;;;7.10;2.40;;;;;;;17.79;41.67;102135.88;4994698;28;20077;-91
2023/05/19 18:43:20;;;;;;;6.87;2.90;;;;;;;17.63;42.26;102137.78;4976448;28;20380;-91
2023/05/19 18:45:46;;;;;;;4.90;2.60;;;;;;;17.61;42.65;102145.38;4993970;28;20089;-91
2023/05/19 18:48:12;;;;;;;3.70;2.10;;;;;;;17.51;43.58;102158.97;4998223;28;20026;-91
2023/05/19 18:50:37;;;;;;;5.43;2.70;;;;;;;17.36;44.59;102152.44;4996924;28;20116;-91
2023/05/19 18:53:05;;;;;;;5.00;2.30;;;;;;;17.25;43.26;102151.63;5001665;28;20027;-91
2023/05/19 18:55:31;;;;;;;5.25;2.65;;;;;;;17.18;43.48;102152.97;5013988;28;20018;-91
2023/05/19 18:57:56;;;;;;;6.60;2.43;;;;;;;17.02;44.31;102155.69;4994522;28;20116;-92
2023/05/19 19:00:26;;;;;;;6.93;2.50;;;;;;;16.95;44.18;102157.84;4993280;28;20026;-92
2023/05/19 19:02:52;;;;;;;6.30;2.45;;;;;;;16.80;44.70;102145.06;4994610;28;20030;-91
2023/05/19 19:05:23;;;;;;;4.63;2.13;;;;;;;16.92;45.11;102180.00;4992877;28;20042;-91
2023/05/19 19:07:49;;;;;;;5.50;2.30;;;;;;;16.81;45.99;102179.19;4992177;28;20033;-92
2023/05/19 19:10:14;;;;;;;4.18;2.40;;;;;;;16.68;46.94;102166.97;4992497;28;20030;-93
2023/05/19 19:12:39;;;;;;;4.23;2.37;;;;;;;16.56;46.32;102172.59;4992240;28;20031;-93
2023/05/19 19:15:05;;;;;;;8.87;2.40;;;;;;;16.38;47.61;102170.38;4991957;28;20034;-92
2023/05/19 19:17:31;;;;;;;3.78;2.55;;;;;;;16.29;46.42;102180.88;4992966;28;20398;-92
2023/05/19 19:19:56;;;;;;;6.97;2.50;;;;;;;16.29;47.61;102183.59;4993045;28;20113;-92
2023/05/19 19:22:21;;;;;;;7.90;2.57;;;;;;;16.15;47.91;102181.38;4995162;28;20027;-93
2023/05/19 19:24:46;;;;;;;7.22;2.40;;;;;;;16.13;47.89;102190.81;4995834;28;20038;-92
2023/05/19 19:27:15;;;;;;;5.60;2.67;;;;;;;15.94;47.68;102193.97;4995700;28;20030;-92
2023/05/19 19:29:40;;;;;;;6.13;2.50;;;;;;;15.93;50.44;102196.91;4996208;28;20034;-91
2023/05/19 19:32:06;;;;;;;3.53;2.23;;;;;;;15.81;49.93;102191.66;4995988;28;20023;-92
2023/05/19 19:34:31;;;;;;;3.73;1.90;;;;;;;15.74;50.22;102194.59;4995978;28;20037;-92
2023/05/19 19:36:56;;;;;;;3.60;2.80;;;;;;;15.70;49.45;102201.59;4995421;28;20064;-92
2023/05/19 19:39:22;;;;;;;4.70;2.30;;;;;;;15.54;50.26;102197.97;4996002;28;20514;-93
2023/05/19 19:41:47;;;;;;;3.67;2.33;;;;;;;15.50;50.33;102205.78;4996232;28;20058;-92
2023/05/19 19:44:12;;;;;;;5.83;2.33;;;;;;;15.40;51.06;102206.50;4996359;28;20026;-92
2023/05/19 19:46:38;;;;;;;9.57;2.97;;;;;;;15.32;50.57;102225.06;4996389;28;20489;-92
2023/05/19 19:49:03;;;;;;;6.22;3.08;;;;;;;15.22;51.24;102207.69;4996968;28;20378;-91
2023/05/19 19:51:28;;;;;;;8.17;3.20;;;;;;;15.10;50.99;102212.44;4996985;28;20109;-92
2023/05/19 19:53:54;;;;;;;7.97;3.23;;;;;;;14.98;52.85;102202.56;4997589;28;20069;-93
2023/05/19 19:56:22;;;;;;;7.57;3.07;;;;;;;14.96;55.20;102206.59;4996811;28;20065;-93
2023/05/19 19:58:47;;;;;;;7.18;2.95;;;;;;;14.96;54.61;102229.03;4997184;28;20504;-92
2023/05/19 20:01:14;;;;;;;6.17;3.03;;;;;;;14.81;53.37;102216.16;4997604;28;20026;-91
2023/05/19 20:03:40;;;;;;;7.30;3.07;;;;;;;14.72;54.71;102217.66;4997431;28;20285;-90
2023/05/19 20:06:06;;;;;;;7.13;2.92;;;;;;;14.72;55.08;102236.56;4997319;28;20031;-92
2023/05/19 20:08:31;;;;;;;7.13;2.58;;;;;;;14.69;55.38;102221.69;4997301;28;20034;-91
2023/05/19 20:10:57;;;;;;;7.57;2.80;;;;;;;14.55;54.28;102233.91;5005712;28;20041;-92
2023/05/19 20:13:22;;;;;;;7.20;2.70;;;;;;;14.47;54.49;102215.44;5015185;28;20061;-92
2023/05/19 20:15:48;;;;;;;6.63;2.78;;;;;;;14.42;54.74;102228.88;4995759;28;20057;-92
2023/05/19 20:18:13;;;;;;;6.73;2.40;;;;;;;14.39;55.73;102239.09;4995042;28;20390;-91
2023/05/19 20:20:39;;;;;;;7.77;2.50;;;;;;;14.27;57.00;102232.97;4993033;28;20124;-93
2023/05/19 20:23:06;;;;;;;5.78;2.78;;;;;;;14.18;56.15;102234.47;4994793;28;20110;-94
2023/05/19 20:25:31;;;;;;;8.90;2.83;;;;;;;14.14;57.80;102234.16;4993923;28;20030;-93
2023/05/19 20:27:57;;;;;;;3.97;2.30;;;;;;;14.12;58.13;102239.00;4994968;28;20062;-91
2023/05/19 20:30:22;;;;;;;3.92;2.35;;;;;;;14.02;58.21;102226.19;4994942;28;20062;-91
2023/05/19 20:32:48;;;;;;;8.17;2.40;;;;;;;13.92;58.64;102217.91;4994031;28;20053;-90
2023/05/19 20:35:13;;;;;;;7.63;2.50;;;;;;;13.91;57.12;102230.59;4993151;28;20500;-91
2023/05/19 20:37:39;;;;;;;8.50;2.72;;;;;;;13.76;57.55;102212.31;4993215;28;20029;-91
2023/05/19 20:40:05;;;;;;;3.43;2.70;;;;;;;13.88;57.15;102241.03;4994332;28;20088;-92
2023/05/19 20:42:31;;;;;;;8.18;2.60;;;;;;;13.84;58.00;102246.09;4994017;28;20038;-92
2023/05/19 20:44:57;;;;;;;7.27;2.40;;;;;;;13.73;57.36;102233.53;4993510;28;20037;-92